Time;durP1;ratioP1;P1;durP2;ratioP2;P2;SDS_P1;SDS_P2;PMS_P1;PMS_P2;Temp;Humidity;BMP_temperature;BMP_pressure;BME280_temperature;BME280_humidity;BME280_pressure;Samples;Min_cycle;Max_cycle;Signal;HPM_P1;HPM_P2
2022/06/26 00:01:54;;;;;;;;;;;;;;;19.96;100.00;99913.84;5133503;28;19927;-45
2022/06/26 00:04:21;;;;;;;;;;;;;;;19.98;100.00;99918.97;5133898;28;20025;-48
2022/06/26 00:06:47;;;;;;;;;;;;;;;19.86;100.00;99933.38;5133303;28;19931;-47
2022/06/26 00:09:13;;;;;;;;;;;;;;;19.91;100.00;99930.97;5133311;28;19980;-46
2022/06/26 00:11:39;;;;;;;;;;;;;;;19.88;100.00;99937.34;5133230;28;19928;-45
2022/06/26 00:14:05;;;;;;;;;;;;;;;19.81;100.00;99940.19;5133323;28;19928;-44
2022/06/26 00:16:31;;;;;;;;;;;;;;;19.92;100.00;99942.88;5133259;28;19927;-45
2022/06/26 00:18:57;;;;;;;;;;;;;;;19.85;100.00;99943.72;5133248;28;19932;-47
2022/06/26 00:21:23;;;;;;;;;;;;;;;19.75;100.00;99948.16;5133051;28;19928;-45
2022/06/26 00:23:49;;;;;;;;;;;;;;;19.64;100.00;99947.44;5133162;28;19934;-46
2022/06/26 00:26:15;;;;;;;;;;;;;;;19.59;100.00;99964.53;5133444;28;19980;-46
2022/06/26 00:28:41;;;;;;;;;;;;;;;19.44;100.00;99957.47;5133035;28;19928;-47
2022/06/26 00:31:07;;;;;;;;;;;;;;;19.52;100.00;99965.34;5133262;28;20416;-49
2022/06/26 00:33:33;;;;;;;;;;;;;;;19.58;100.00;99956.59;5132990;28;19927;-45
2022/06/26 00:35:59;;;;;;;;;;;;;;;19.54;100.00;99978.09;5132468;27;19987;-46
2022/06/26 00:38:25;;;;;;;;;;;;;;;19.44;100.00;99974.16;5133064;28;19927;-46
2022/06/26 00:40:51;;;;;;;;;;;;;;;19.36;100.00;99969.81;5132968;28;20478;-48
2022/06/26 00:43:17;;;;;;;;;;;;;;;19.31;100.00;99967.47;5132837;28;19931;-45
2022/06/26 00:45:43;;;;;;;;;;;;;;;19.23;100.00;99966.72;5132852;28;19927;-47
2022/06/26 00:48:09;;;;;;;;;;;;;;;19.20;100.00;99968.31;5132640;28;19934;-45
2022/06/26 00:50:35;;;;;;;;;;;;;;;19.22;100.00;99967.91;5132726;28;19946;-45
2022/06/26 00:53:02;;;;;;;;;;;;;;;19.19;100.00;99974.28;5132915;28;19934;-45
2022/06/26 00:55:28;;;;;;;;;;;;;;;19.10;100.00;99977.50;5132899;28;20324;-45
2022/06/26 00:57:55;;;;;;;;;;;;;;;19.07;100.00;99972.75;5133228;28;19943;-44
2022/06/26 01:00:21;;;;;;;;;;;;;;;19.03;100.00;99969.19;5132922;28;19935;-45
2022/06/26 01:02:47;;;;;;;;;;;;;;;19.03;100.00;99967.19;5132819;28;20402;-45
2022/06/26 01:05:13;;;;;;;;;;;;;;;18.97;100.00;99965.25;5132578;28;19996;-44
2022/06/26 01:07:40;;;;;;;;;;;;;;;18.94;100.00;99963.25;5132328;28;20390;-46
2022/06/26 01:10:07;;;;;;;;;;;;;;;19.00;100.00;99961.66;5132443;28;20026;-44
2022/06/26 01:12:33;;;;;;;;;;;;;;;18.89;100.00;99977.56;5132501;28;19927;-45
2022/06/26 01:15:00;;;;;;;;;;;;;;;19.00;100.00;99958.88;5132582;28;20290;-45
2022/06/26 01:17:26;;;;;;;;;;;;;;;18.98;100.00;99956.50;5132241;28;20393;-44
2022/06/26 01:19:53;;;;;;;;;;;;;;;18.93;100.00;99961.69;5132242;28;19927;-47
2022/06/26 01:22:19;;;;;;;;;;;;;;;18.94;100.00;99966.03;5132387;28;19931;-45
2022/06/26 01:24:46;;;;;;;;;;;;;;;18.95;100.00;99954.50;5132546;28;20029;-46
2022/06/26 01:27:12;;;;;;;;;;;;;;;18.97;100.00;99963.25;5132140;28;20416;-45
2022/06/26 01:29:38;;;;;;;;;;;;;;;18.94;100.00;99952.94;5132315;28;19982;-45
2022/06/26 01:32:05;;;;;;;;;;;;;;;18.94;100.00;99960.47;5131927;28;19934;-45
2022/06/26 01:34:31;;;;;;;;;;;;;;;18.90;100.00;99951.38;5132045;28;20433;-45
2022/06/26 01:36:56;;;;;;;;;;;;;;;18.89;100.00;99958.09;5132071;28;19985;-49
2022/06/26 01:39:22;;;;;;;;;;;;;;;18.91;100.00;99958.50;5131847;28;20397;-45
2022/06/26 01:41:49;;;;;;;;;;;;;;;18.88;100.00;99962.09;5131930;28;19932;-46
2022/06/26 01:44:16;;;;;;;;;;;;;;;18.90;100.00;99965.28;5132076;28;20416;-45
2022/06/26 01:46:41;;;;;;;;;;;;;;;18.75;100.00;99958.94;5130847;27;19933;-45
2022/06/26 01:49:08;;;;;;;;;;;;;;;18.76;100.00;99955.78;5131915;28;19927;-46
2022/06/26 01:51:34;;;;;;;;;;;;;;;18.70;100.00;99942.69;5132004;28;19927;-48
2022/06/26 01:54:00;;;;;;;;;;;;;;;18.76;100.00;99935.53;5131594;28;19938;-45
2022/06/26 01:56:26;;;;;;;;;;;;;;;18.71;100.00;99942.25;5132108;28;19927;-45
2022/06/26 01:58:52;;;;;;;;;;;;;;;18.70;100.00;99945.47;5131638;28;19927;-48
2022/06/26 02:01:18;;;;;;;;;;;;;;;18.66;100.00;99945.47;5131988;28;20406;-45
2022/06/26 02:03:44;;;;;;;;;;;;;;;18.74;100.00;99935.16;5131558;28;19927;-47
2022/06/26 02:06:10;;;;;;;;;;;;;;;18.68;100.00;99943.06;5131678;28;19927;-44
2022/06/26 02:08:36;;;;;;;;;;;;;;;18.77;100.00;99942.69;5131735;28;20338;-44
2022/06/26 02:13:47;;;;;;;;;;;;;;;18.97;100.00;99968.81;5131562;28;20008;-44
2022/06/26 02:16:14;;;;;;;;;;;;;;;19.04;100.00;99987.44;5131317;28;20012;-45
2022/06/26 02:18:42;;;;;;;;;;;;;;;19.11;100.00;99992.19;5131726;28;19933;-45
2022/06/26 02:21:09;;;;;;;;;;;;;;;19.09;100.00;99992.56;5131196;28;20025;-45
2022/06/26 02:23:35;;;;;;;;;;;;;;;19.24;100.00;99994.09;5131593;28;20022;-45
2022/06/26 02:26:02;;;;;;;;;;;;;;;19.65;100.00;100015.00;5131123;28;19932;-44
2022/06/26 02:28:27;;;;;;;;;;;;;;;19.91;100.00;100042.25;5131405;28;19933;-44
2022/06/26 02:30:53;;;;;;;;;;;;;;;20.31;100.00;100050.34;5131275;28;19927;-45
2022/06/26 02:33:22;;;;;;;;;;;;;;;20.61;100.00;100052.53;5131259;28;20398;-45
2022/06/26 02:35:48;;;;;;;;;;;;;;;20.96;100.00;100040.25;5131151;28;19934;-45
2022/06/26 02:38:15;;;;;;;;;;;;;;;21.14;100.00;100012.16;5131295;28;20010;-45
2022/06/26 02:40:41;;;;;;;;;;;;;;;21.50;100.00;99956.75;5130947;28;19934;-46
2022/06/26 02:43:07;;;;;;;;;;;;;;;21.64;100.00;99927.84;5131181;28;19938;-45
2022/06/26 02:45:33;;;;;;;;;;;;;;;21.88;100.00;99861.69;5131101;28;20330;-45
2022/06/26 02:47:59;;;;;;;;;;;;;;;22.02;100.00;99813.97;5130831;28;20406;-45
2022/06/26 02:50:26;;;;;;;;;;;;;;;22.26;100.00;99769.28;5131286;28;19927;-45
2022/06/26 02:52:52;;;;;;;;;;;;;;;22.35;100.00;99737.97;5130945;28;19927;-46
2022/06/26 02:55:18;;;;;;;;;;;;;;;22.72;100.00;99639.72;5131139;28;20035;-45
2022/06/26 02:57:44;;;;;;;;;;;;;;;22.74;100.00;99505.91;5131290;27;19953;-45
2022/06/26 03:00:11;;;;;;;;;;;;;;;23.00;100.00;99517.25;5134638;28;19935;-46
2022/06/26 03:02:37;;;;;;;;;;;;;;;23.28;100.00;99439.38;5134535;28;19928;-46
2022/06/26 03:05:04;;;;;;;;;;;;;;;23.00;100.00;99383.84;5134401;28;19934;-46
2022/06/26 03:07:31;;;;;;;;;;;;;;;23.18;100.00;99318.97;5134281;28;19927;-47
2022/06/26 03:09:57;;;;;;;;;;;;;;;23.87;100.00;99247.59;5134496;28;19931;-47
2022/06/26 03:12:23;;;;;;;;;;;;;;;24.04;100.00;99178.97;5134408;28;19927;-45
2022/06/26 03:14:49;;;;;;;;;;;;;;;24.16;100.00;99096.91;5134335;28;19928;-46
2022/06/26 03:17:15;;;;;;;;;;;;;;;24.15;100.00;99072.16;5134607;28;20408;-49
2022/06/26 03:19:41;;;;;;;;;;;;;;;24.30;100.00;99064.75;5134139;28;19934;-48
2022/06/26 03:22:07;;;;;;;;;;;;;;;24.71;100.00;98991.88;5134736;28;19927;-45
2022/06/26 03:24:34;;;;;;;;;;;;;;;24.96;100.00;98932.69;5134321;28;19928;-45
2022/06/26 03:27:00;;;;;;;;;;;;;;;24.75;100.00;98919.59;5134487;28;19937;-46
2022/06/26 03:29:26;;;;;;;;;;;;;;;25.11;100.00;98775.75;5134140;28;19927;-47
2022/06/26 03:31:52;;;;;;;;;;;;;;;25.27;100.00;98789.44;5134029;28;20309;-47
2022/06/26 03:34:19;;;;;;;;;;;;;;;25.51;100.00;98752.97;5133940;28;20310;-46
2022/06/26 03:36:45;;;;;;;;;;;;;;;25.84;100.00;98701.63;5134237;28;19927;-46
2022/06/26 03:39:11;;;;;;;;;;;;;;;26.17;100.00;98667.78;5134113;28;19973;-45
2022/06/26 03:41:38;;;;;;;;;;;;;;;25.99;100.00;98629.44;5133940;28;19931;-47
2022/06/26 03:44:04;;;;;;;;;;;;;;;26.39;100.00;98587.94;5133833;28;20321;-46
2022/06/26 03:46:30;;;;;;;;;;;;;;;26.97;100.00;98553.28;5133629;28;19927;-46
2022/06/26 03:48:56;;;;;;;;;;;;;;;26.96;100.00;98554.56;5133963;28;19934;-49
2022/06/26 03:51:22;;;;;;;;;;;;;;;26.69;100.00;98552.91;5133607;28;19933;-46
2022/06/26 03:53:48;;;;;;;;;;;;;;;27.16;100.00;98553.81;5133493;28;19927;-47
2022/06/26 03:56:13;;;;;;;;;;;;;;;27.50;100.00;98542.94;5133601;28;20031;-47
2022/06/26 03:58:40;;;;;;;;;;;;;;;27.30;100.00;98549.38;5133678;28;20324;-50
2022/06/26 04:01:06;;;;;;;;;;;;;;;27.43;100.00;98540.56;5133607;28;20026;-47
2022/06/26 04:03:32;;;;;;;;;;;;;;;27.82;100.00;98540.94;5133490;28;19931;-48
2022/06/26 04:05:59;;;;;;;;;;;;;;;28.07;100.00;98539.38;5133579;28;20418;-47
2022/06/26 04:08:25;;;;;;;;;;;;;;;28.45;100.00;98530.97;5133341;28;19928;-46
2022/06/26 04:10:51;;;;;;;;;;;;;;;28.64;100.00;98539.81;5132883;27;19928;-48
2022/06/26 04:13:16;;;;;;;;;;;;;;;28.49;100.00;98563.31;5133253;28;19932;-48
2022/06/26 04:15:43;;;;;;;;;;;;;;;28.32;100.00;98560.34;5133631;28;19935;-47
2022/06/26 04:18:09;;;;;;;;;;;;;;;27.49;100.00;98541.41;5133177;28;20416;-47
2022/06/26 04:20:35;;;;;;;;;;;;;;;27.78;100.00;98542.47;5133508;28;20071;-50
2022/06/26 04:23:02;;;;;;;;;;;;;;;27.62;100.00;98569.94;5133290;28;19927;-46
2022/06/26 04:25:29;;;;;;;;;;;;;;;29.43;100.00;98540.97;5133481;28;19952;-46
2022/06/26 04:27:55;;;;;;;;;;;;;;;29.83;100.00;98553.91;5133250;28;19928;-46
2022/06/26 04:30:21;;;;;;;;;;;;;;;29.99;100.00;98595.53;5133357;28;20357;-46
2022/06/26 04:32:48;;;;;;;;;;;;;;;29.43;100.00;98586.13;5133076;28;20030;-46
2022/06/26 04:35:14;;;;;;;;;;;;;;;30.05;100.00;98600.41;5133217;28;19934;-48
2022/06/26 04:37:40;;;;;;;;;;;;;;;29.87;100.00;98610.16;5133012;28;20027;-46
2022/06/26 04:40:08;;;;;;;;;;;;;;;28.59;100.00;98581.59;5132994;28;20430;-48
2022/06/26 04:42:34;;;;;;;;;;;;;;;30.54;100.00;98637.72;5133196;28;20294;-47
2022/06/26 04:45:00;;;;;;;;;;;;;;;31.13;100.00;98667.78;5132794;28;19927;-48
2022/06/26 04:47:25;;;;;;;;;;;;;;;30.84;100.00;98684.03;5133085;28;19927;-50
2022/06/26 04:49:52;;;;;;;;;;;;;;;30.46;100.00;98672.19;5132776;28;19934;-49
2022/06/26 04:52:18;;;;;;;;;;;;;;;30.43;100.00;98672.44;5132895;28;19927;-46
2022/06/26 04:54:44;;;;;;;;;;;;;;;30.53;100.00;98668.06;5132953;28;19979;-47
2022/06/26 04:57:10;;;;;;;;;;;;;;;30.95;100.00;98717.19;5132724;28;20432;-48
2022/06/26 04:59:37;;;;;;;;;;;;;;;31.36;100.00;98751.41;5132566;28;20292;-49
2022/06/26 05:02:03;;;;;;;;;;;;;;;31.24;100.00;98768.91;5132852;28;19927;-47
2022/06/26 05:04:29;;;;;;;;;;;;;;;30.08;100.00;98730.16;5132823;28;19927;-47
2022/06/26 05:06:56;;;;;;;;;;;;;;;31.15;100.00;98752.94;5132383;28;20003;-47
2022/06/26 05:09:22;;;;;;;;;;;;;;;30.39;100.00;98774.50;5132721;28;19928;-47
2022/06/26 05:11:48;;;;;;;;;;;;;;;31.95;100.00;98788.34;5132462;28;20306;-46
2022/06/26 05:14:14;;;;;;;;;;;;;;;31.31;100.00;98718.16;5132766;28;19927;-49
2022/06/26 05:16:40;;;;;;;;;;;;;;;31.87;100.00;98810.78;5132228;28;20425;-47
2022/06/26 05:19:06;;;;;;;;;;;;;;;31.95;100.00;98833.72;5132741;28;20057;-48
2022/06/26 05:21:32;;;;;;;;;;;;;;;31.96;100.00;98847.38;5132129;27;20329;-47
2022/06/26 05:23:59;;;;;;;;;;;;;;;30.93;100.00;98737.53;5132351;28;20054;-47
2022/06/26 05:26:25;;;;;;;;;;;;;;;32.49;100.00;98824.72;5132263;28;19928;-47
2022/06/26 05:28:51;;;;;;;;;;;;;;;31.80;100.00;98873.66;5131978;28;19928;-46
2022/06/26 05:31:17;;;;;;;;;;;;;;;31.90;100.00;98874.19;5132190;28;19928;-47
2022/06/26 05:33:43;;;;;;;;;;;;;;;32.74;100.00;98829.22;5132258;28;19927;-46
2022/06/26 05:36:09;;;;;;;;;;;;;;;32.81;100.00;98848.53;5132673;28;20653;-46
2022/06/26 05:38:35;;;;;;;;;;;;;;;31.99;100.00;98820.03;5132128;28;19928;-46
2022/06/26 05:41:02;;;;;;;;;;;;;;;32.61;100.00;98837.56;5132192;28;19933;-47
2022/06/26 05:43:28;;;;;;;;;;;;;;;32.91;100.00;98842.53;5131730;28;19934;-48
2022/06/26 05:45:54;;;;;;;;;;;;;;;32.65;100.00;98866.44;5132138;28;19971;-47
2022/06/26 05:48:20;;;;;;;;;;;;;;;32.49;100.00;98848.22;5131719;28;19927;-47
2022/06/26 05:50:46;;;;;;;;;;;;;;;33.22;100.00;98893.22;5131974;28;19931;-50
2022/06/26 05:53:12;;;;;;;;;;;;;;;33.74;100.00;98894.34;5131769;28;19928;-47
2022/06/26 05:55:38;;;;;;;;;;;;;;;33.47;100.00;98910.31;5131650;28;19928;-47
2022/06/26 05:58:06;;;;;;;;;;;;;;;33.42;100.00;98862.81;5131623;28;19963;-47
2022/06/26 06:00:32;;;;;;;;;;;;;;;34.07;100.00;98909.53;5131775;28;20387;-50
2022/06/26 06:02:58;;;;;;;;;;;;;;;33.91;100.00;98968.84;5131820;28;19934;-46
2022/06/26 06:05:25;;;;;;;;;;;;;;;33.58;100.00;98955.72;5131549;28;20302;-46
2022/06/26 06:07:52;;;;;;;;;;;;;;;33.84;100.00;98965.84;5131853;28;20297;-46
2022/06/26 06:10:18;;;;;;;;;;;;;;;33.93;100.00;98986.16;5131427;28;20026;-46
2022/06/26 06:12:44;;;;;;;;;;;;;;;33.20;100.00;98952.59;5131588;28;19952;-46
2022/06/26 06:15:11;;;;;;;;;;;;;;;33.71;100.00;99000.56;5131350;28;20018;-50
2022/06/26 06:17:37;;;;;;;;;;;;;;;33.95;100.00;99012.00;5131537;28;19931;-49
2022/06/26 06:20:03;;;;;;;;;;;;;;;34.00;100.00;98999.03;5131353;28;19935;-47
2022/06/26 06:22:29;;;;;;;;;;;;;;;34.43;100.00;99002.00;5131370;28;19927;-48
2022/06/26 06:24:55;;;;;;;;;;;;;;;34.34;100.00;99010.88;5131308;28;20431;-49
2022/06/26 06:27:22;;;;;;;;;;;;;;;34.56;100.00;99038.38;5131068;28;19927;-48
2022/06/26 06:29:48;;;;;;;;;;;;;;;33.80;100.00;99039.28;5131372;28;19934;-46
2022/06/26 06:32:14;;;;;;;;;;;;;;;33.55;100.00;99013.59;5130633;27;19928;-47
2022/06/26 06:34:40;;;;;;;;;;;;;;;34.41;100.00;99023.75;5131334;28;19931;-47
2022/06/26 06:37:06;;;;;;;;;;;;;;;34.93;100.00;99019.06;5131091;28;20356;-50
2022/06/26 06:39:32;;;;;;;;;;;;;;;35.01;100.00;99039.91;5131136;28;19935;-50
2022/06/26 06:41:58;;;;;;;;;;;;;;;34.60;100.00;98976.22;5131328;28;19927;-48
2022/06/26 06:44:24;;;;;;;;;;;;;;;34.84;100.00;99028.72;5131652;28;19927;-50
2022/06/26 06:46:50;;;;;;;;;;;;;;;34.64;100.00;99016.53;5131135;28;20459;-46
2022/06/26 06:49:16;;;;;;;;;;;;;;;33.77;100.00;99032.56;5131162;28;20429;-46
2022/06/26 06:51:42;;;;;;;;;;;;;;;34.19;100.00;99002.75;5130958;28;20010;-49
2022/06/26 06:54:09;;;;;;;;;;;;;;;32.60;100.00;98929.69;5130778;28;20444;-48
2022/06/26 06:56:35;;;;;;;;;;;;;;;33.43;100.00;98972.34;5131133;28;20407;-48
2022/06/26 06:59:01;;;;;;;;;;;;;;;33.30;100.00;98957.97;5130766;28;19934;-50
2022/06/26 07:01:27;;;;;;;;;;;;;;;33.41;100.00;99011.88;5131009;28;19928;-47
2022/06/26 07:03:53;;;;;;;;;;;;;;;33.41;100.00;98974.94;5130891;28;19935;-51
2022/06/26 07:06:21;;;;;;;;;;;;;;;33.09;100.00;98955.53;5130986;28;20305;-50
2022/06/26 07:08:47;;;;;;;;;;;;;;;32.65;100.00;98943.06;5130634;28;19932;-47
2022/06/26 07:11:13;;;;;;;;;;;;;;;32.70;100.00;98959.31;5131125;28;20386;-49
2022/06/26 07:13:39;;;;;;;;;;;;;;;31.97;100.00;98910.50;5130644;28;19927;-49
2022/06/26 07:16:05;;;;;;;;;;;;;;;33.22;100.00;98957.75;5130719;28;19934;-49
2022/06/26 07:18:31;;;;;;;;;;;;;;;32.26;100.00;98954.53;5130544;28;19934;-50
2022/06/26 07:20:57;;;;;;;;;;;;;;;31.98;100.00;98965.91;5130591;28;19935;-48
2022/06/26 07:23:24;;;;;;;;;;;;;;;32.77;100.00;98921.09;5130517;28;19927;-47
2022/06/26 07:25:50;;;;;;;;;;;;;;;33.27;100.00;98962.63;5130742;28;19970;-49
2022/06/26 07:28:16;;;;;;;;;;;;;;;33.28;100.00;98984.81;5130473;28;20375;-49
2022/06/26 07:30:42;;;;;;;;;;;;;;;34.03;100.00;98983.78;5130334;28;19953;-49
2022/06/26 07:34:12;;;;;;;;;;;;;;;33.72;100.00;98983.00;5130602;28;19960;-47
2022/06/26 07:35:54;;;;;;;;;;;;;;;33.48;100.00;98963.78;5130123;28;19927;-50
2022/06/26 07:38:20;;;;;;;;;;;;;;;33.26;100.00;98995.19;5130468;28;20458;-48
2022/06/26 07:40:47;;;;;;;;;;;;;;;33.55;100.00;98993.72;5130708;28;19927;-49
2022/06/26 07:43:13;;;;;;;;;;;;;;;32.35;100.00;98942.88;5130798;28;20352;-50
2022/06/26 07:45:39;;;;;;;;;;;;;;;31.91;100.00;98895.56;5132391;27;20751;-49
2022/06/26 07:48:05;;;;;;;;;;;;;;;31.47;100.00;98880.16;5133738;28;19928;-48
2022/06/26 07:50:31;;;;;;;;;;;;;;;30.65;100.00;98804.63;5133769;28;20030;-49
2022/06/26 07:52:57;;;;;;;;;;;;;;;30.33;100.00;98852.13;5133572;28;19932;-48
2022/06/26 07:55:23;;;;;;;;;;;;;;;31.14;100.00;98850.50;5133843;28;19928;-50
2022/06/26 07:57:50;;;;;;;;;;;;;;;30.19;100.00;98867.97;5133733;28;19927;-46
2022/06/26 08:00:16;;;;;;;;;;;;;;;32.26;100.00;98860.94;5133901;28;19928;-46
2022/06/26 08:02:41;;;;;;;;;;;;;;;31.72;100.00;98896.06;5133770;28;19934;-47
2022/06/26 08:05:08;;;;;;;;;;;;;;;31.27;100.00;98873.44;5133617;28;19937;-50
2022/06/26 08:07:34;;;;;;;;;;;;;;;31.16;100.00;98879.09;5133354;28;20283;-48
2022/06/26 08:10:00;;;;;;;;;;;;;;;31.04;100.00;98917.94;5133596;28;20008;-50
2022/06/26 08:12:26;;;;;;;;;;;;;;;32.30;100.00;98933.09;5133399;28;19927;-49
2022/06/26 08:14:52;;;;;;;;;;;;;;;31.76;100.00;98890.94;5133382;28;19927;-47
2022/06/26 08:17:18;;;;;;;;;;;;;;;32.74;100.00;98942.00;5133233;28;19927;-47
2022/06/26 08:19:44;;;;;;;;;;;;;;;32.89;100.00;98996.38;5133204;28;20387;-50
2022/06/26 08:22:10;;;;;;;;;;;;;;;33.08;100.00;98979.53;5133309;28;20294;-47
2022/06/26 08:24:38;;;;;;;;;;;;;;;31.90;100.00;98981.91;5133329;28;19928;-48
2022/06/26 08:27:04;;;;;;;;;;;;;;;31.46;100.00;98992.69;5133506;28;19950;-48
2022/06/26 08:29:30;;;;;;;;;;;;;;;32.54;100.00;99002.69;5132915;28;20309;-46
2022/06/26 08:31:57;;;;;;;;;;;;;;;32.17;100.00;98969.75;5133356;28;19934;-47
2022/06/26 08:34:23;;;;;;;;;;;;;;;32.63;100.00;99002.41;5132975;28;19935;-47
2022/06/26 08:36:51;;;;;;;;;;;;;;;32.41;100.00;99025.16;5132585;28;21502;-47
2022/06/26 08:39:16;;;;;;;;;;;;;;;32.20;100.00;99019.78;5132991;28;20353;-46
2022/06/26 08:41:44;;;;;;;;;;;;;;;32.30;100.00;98969.97;5132899;28;19949;-49
2022/06/26 08:44:10;;;;;;;;;;;;;;;32.53;100.00;98972.78;5132907;28;20018;-47
2022/06/26 08:46:36;;;;;;;;;;;;;;;32.51;100.00;98987.47;5132701;28;20406;-50
2022/06/26 08:49:05;;;;;;;;;;;;;;;32.91;100.00;98945.50;5132684;28;19927;-50
2022/06/26 08:51:32;;;;;;;;;;;;;;;33.76;100.00;98996.13;5132810;28;20018;-50
2022/06/26 08:53:58;;;;;;;;;;;;;;;34.20;100.00;99012.06;5133050;28;19931;-48
2022/06/26 08:56:24;;;;;;;;;;;;;;;33.87;100.00;99035.88;5132434;27;19933;-49
2022/06/26 08:58:50;;;;;;;;;;;;;;;33.71;100.00;99026.16;5133052;28;20343;-47
2022/06/26 09:01:16;;;;;;;;;;;;;;;33.43;100.00;99041.31;5132852;28;20050;-48
2022/06/26 09:03:42;;;;;;;;;;;;;;;33.33;100.00;98993.84;5133146;28;19927;-47
2022/06/26 09:06:09;;;;;;;;;;;;;;;32.80;100.00;98957.72;5132739;28;19927;-46
2022/06/26 09:08:42;;;;;;;;;;;;;;;32.47;100.00;98949.34;5132575;28;19934;-47
2022/06/26 09:11:08;;;;;;;;;;;;;;;32.00;100.00;98878.28;5132481;28;20001;-49
2022/06/26 09:13:37;;;;;;;;;;;;;;;32.70;100.00;98947.94;5132276;28;19983;-50
2022/06/26 09:16:04;;;;;;;;;;;;;;;32.91;100.00;98919.97;5132368;28;20537;-49
2022/06/26 09:18:33;;;;;;;;;;;;;;;33.42;100.00;99027.59;5132197;28;20416;-48
2022/06/26 09:20:59;;;;;;;;;;;;;;;32.92;100.00;98955.56;5132482;28;19927;-47
2022/06/26 09:23:26;;;;;;;;;;;;;;;33.78;100.00;99014.22;5132206;28;19931;-47
2022/06/26 09:25:52;;;;;;;;;;;;;;;32.52;100.00;99006.06;5132539;28;19934;-47
2022/06/26 09:28:18;;;;;;;;;;;;;;;31.41;100.00;98934.72;5132029;28;19931;-49
2022/06/26 09:30:49;;;;;;;;;;;;;;;30.80;100.00;98878.78;5132314;28;19927;-49
2022/06/26 09:33:15;;;;;;;;;;;;;;;30.50;100.00;98838.03;5132212;28;20018;-50
2022/06/26 09:35:41;;;;;;;;;;;;;;;30.08;100.00;98749.19;5132109;28;19972;-48
2022/06/26 09:38:07;;;;;;;;;;;;;;;30.07;100.00;98737.13;5131981;28;19935;-50
2022/06/26 09:40:34;;;;;;;;;;;;;;;29.77;100.00;98765.75;5132099;28;19935;-47
2022/06/26 09:43:00;;;;;;;;;;;;;;;30.06;100.00;98808.25;5132025;28;19933;-49
2022/06/26 09:45:26;;;;;;;;;;;;;;;29.32;100.00;98733.66;5131813;28;20306;-48
2022/06/26 09:47:52;;;;;;;;;;;;;;;29.19;100.00;98702.25;5132011;28;19972;-49
2022/06/26 09:50:19;;;;;;;;;;;;;;;29.46;100.00;98698.84;5131816;28;19934;-49
2022/06/26 09:52:45;;;;;;;;;;;;;;;29.81;100.00;98711.06;5132055;28;19928;-48
2022/06/26 09:55:11;;;;;;;;;;;;;;;29.98;100.00;98788.97;5131716;28;20030;-46
2022/06/26 09:57:37;;;;;;;;;;;;;;;29.98;100.00;98760.72;5132088;28;20273;-49
2022/06/26 10:00:04;;;;;;;;;;;;;;;30.18;100.00;98761.81;5132026;28;19935;-49
2022/06/26 10:08:04;;;;;;;;;;;;;;;31.15;100.00;98789.75;5130533;27;20013;-48
2022/06/26 10:10:30;;;;;;;;;;;;;;;30.69;100.00;98782.50;5131503;28;19928;-47
2022/06/26 10:13:00;;;;;;;;;;;;;;;31.27;100.00;98799.03;5131361;28;20421;-48
2022/06/26 10:15:27;;;;;;;;;;;;;;;32.33;100.00;98812.16;5131523;28;20310;-48
2022/06/26 10:18:09;;;;;;;;;;;;;;;32.34;100.00;98905.25;5131280;28;20463;-50
2022/06/26 10:20:37;;;;;;;;;;;;;;;32.70;100.00;98887.59;5131658;28;19933;-48
2022/06/26 10:23:03;;;;;;;;;;;;;;;31.95;100.00;98845.03;5131312;28;19927;-48
2022/06/26 10:25:30;;;;;;;;;;;;;;;31.54;100.00;98852.06;5131212;28;20071;-47
2022/06/26 10:27:56;;;;;;;;;;;;;;;31.36;100.00;98782.56;5131260;28;20484;-47
2022/06/26 10:30:24;;;;;;;;;;;;;;;30.94;100.00;98814.72;5131300;28;20022;-48
2022/06/26 10:33:04;;;;;;;;;;;;;;;30.72;100.00;98770.16;5131216;28;19928;-48
2022/06/26 10:35:37;;;;;;;;;;;;;;;30.68;100.00;98809.25;5131419;28;19934;-46
2022/06/26 10:38:16;;;;;;;;;;;;;;;31.13;100.00;98880.13;5131137;28;19927;-50
2022/06/26 10:43:37;;;;;;;;;;;;;;;31.85;100.00;98892.72;5131490;28;19935;-46
2022/06/26 10:46:04;;;;;;;;;;;;;;;31.84;100.00;98931.63;5131122;28;20382;-47
2022/06/26 10:48:31;;;;;;;;;;;;;;;31.33;100.00;98896.88;5130870;28;19928;-48
2022/06/26 10:50:58;;;;;;;;;;;;;;;31.60;100.00;98877.56;5131149;28;20018;-47
2022/06/26 10:53:25;;;;;;;;;;;;;;;31.53;100.00;98875.25;5131024;28;19927;-46
2022/06/26 10:55:52;;;;;;;;;;;;;;;31.70;100.00;98864.66;5131110;28;19927;-46
2022/06/26 10:58:19;;;;;;;;;;;;;;;31.54;100.00;98886.06;5130931;28;19927;-46
2022/06/26 11:00:46;;;;;;;;;;;;;;;32.09;100.00;98931.88;5130920;28;19927;-47
2022/06/26 11:03:13;;;;;;;;;;;;;;;31.91;100.00;98896.34;5130768;28;19927;-46
2022/06/26 11:05:48;;;;;;;;;;;;;;;31.43;100.00;98899.47;5130792;28;19934;-46
2022/06/26 11:08:21;;;;;;;;;;;;;;;30.89;100.00;98857.94;5130636;28;20358;-46
2022/06/26 11:10:47;;;;;;;;;;;;;;;31.20;100.00;98867.50;5130944;28;19931;-47
2022/06/26 11:13:13;;;;;;;;;;;;;;;31.23;100.00;98841.75;5130887;28;20347;-46
2022/06/26 11:15:39;;;;;;;;;;;;;;;30.95;100.00;98833.25;5130883;28;19927;-47
2022/06/26 11:18:06;;;;;;;;;;;;;;;30.67;100.00;98771.72;5130847;28;19928;-46
2022/06/26 11:20:50;;;;;;;;;;;;;;;30.89;100.00;98792.84;5133923;27;19927;-47
2022/06/26 11:23:20;;;;;;;;;;;;;;;30.32;100.00;98842.84;5134503;28;19980;-48
2022/06/26 11:25:47;;;;;;;;;;;;;;;30.37;100.00;98816.66;5134212;28;19931;-46
2022/06/26 11:28:13;;;;;;;;;;;;;;;30.33;100.00;98804.81;5134210;28;19927;-47
2022/06/26 11:30:40;;;;;;;;;;;;;;;30.71;100.00;98823.16;5134162;28;19927;-49
2022/06/26 11:33:06;;;;;;;;;;;;;;;30.88;100.00;98862.06;5134010;28;19931;-46
2022/06/26 11:35:34;;;;;;;;;;;;;;;30.67;100.00;98867.13;5133891;28;19934;-46
2022/06/26 11:38:07;;;;;;;;;;;;;;;30.29;100.00;98872.16;5134123;28;19927;-46
2022/06/26 11:40:34;;;;;;;;;;;;;;;29.70;100.00;98794.50;5133933;28;20271;-47
2022/06/26 11:43:00;;;;;;;;;;;;;;;29.63;100.00;98783.69;5133999;28;20067;-48
2022/06/26 11:45:26;;;;;;;;;;;;;;;29.71;100.00;98733.88;5134000;28;19931;-46
2022/06/26 11:47:52;;;;;;;;;;;;;;;30.08;100.00;98780.28;5134139;28;19928;-48
2022/06/26 11:50:18;;;;;;;;;;;;;;;30.40;100.00;98733.63;5134325;28;19928;-46
2022/06/26 11:52:44;;;;;;;;;;;;;;;30.24;100.00;98746.44;5134051;28;19927;-47
2022/06/26 11:55:11;;;;;;;;;;;;;;;30.27;100.00;98755.19;5133877;28;19974;-46
2022/06/26 11:57:37;;;;;;;;;;;;;;;29.66;100.00;98796.78;5133688;28;20099;-47
2022/06/26 12:00:04;;;;;;;;;;;;;;;29.67;100.00;98741.84;5133596;28;19927;-47
2022/06/26 12:02:30;;;;;;;;;;;;;;;29.83;100.00;98779.16;5133539;28;19928;-50
2022/06/26 12:04:57;;;;;;;;;;;;;;;29.62;100.00;98734.09;5133492;28;19980;-46
2022/06/26 12:07:23;;;;;;;;;;;;;;;29.70;100.00;98765.47;5133578;28;19927;-47
2022/06/26 12:09:49;;;;;;;;;;;;;;;29.73;100.00;98753.16;5133411;28;19934;-49
2022/06/26 12:12:15;;;;;;;;;;;;;;;30.07;100.00;98768.19;5133647;28;19984;-47
2022/06/26 12:14:48;;;;;;;;;;;;;;;30.04;100.00;98771.28;5133478;28;20417;-49
2022/06/26 12:17:19;;;;;;;;;;;;;;;29.56;100.00;98784.13;5133698;28;20435;-47
2022/06/26 12:19:46;;;;;;;;;;;;;;;29.91;100.00;98747.06;5133353;28;19934;-45
2022/06/26 12:22:12;;;;;;;;;;;;;;;29.83;100.00;98779.16;5133301;28;20397;-45
2022/06/26 12:24:48;;;;;;;;;;;;;;;29.66;100.00;98737.47;5133387;28;19943;-45
2022/06/26 12:27:14;;;;;;;;;;;;;;;29.60;100.00;98673.75;5133237;28;19927;-45
2022/06/26 12:29:40;;;;;;;;;;;;;;;29.67;100.00;98809.63;5133102;28;19935;-46
2022/06/26 12:32:06;;;;;;;;;;;;;;;29.62;100.00;98787.00;5132229;27;19927;-45
2022/06/26 12:34:32;;;;;;;;;;;;;;;29.88;100.00;98863.94;5133226;28;20370;-49
2022/06/26 12:36:58;;;;;;;;;;;;;;;29.80;100.00;98794.28;5133016;28;19949;-47
2022/06/26 12:39:24;;;;;;;;;;;;;;;29.35;100.00;98749.56;5133124;28;19927;-46
2022/06/26 12:41:50;;;;;;;;;;;;;;;29.13;100.00;98738.94;5132948;28;19935;-45
2022/06/26 12:44:16;;;;;;;;;;;;;;;29.01;100.00;98715.50;5133188;28;19934;-46